sensor_id;sensor_type;location;lat;lon;timestamp;P1;durP1;ratioP1;P2;durP2;ratioP2
3068;SDS011;1545;51.728;8.796;2023-04-06T00:01:33;22.93;;;13.47;;
3068;SDS011;1545;51.728;8.796;2023-04-06T00:03:59;22.50;;;13.77;;
3068;SDS011;1545;51.728;8.796;2023-04-06T00:06:25;27.67;;;14.20;;
3068;SDS011;1545;51.728;8.796;2023-04-06T00:08:51;23.63;;;14.80;;
3068;SDS011;1545;51.728;8.796;2023-04-06T00:11:17;23.43;;;14.23;;
3068;SDS011;1545;51.728;8.796;2023-04-06T00:13:42;23.70;;;14.40;;
3068;SDS011;1545;51.728;8.796;2023-04-06T00:16:08;37.57;;;14.40;;
3068;SDS011;1545;51.728;8.796;2023-04-06T00:18:33;21.73;;;14.23;;
3068;SDS011;1545;51.728;8.796;2023-04-06T00:20:59;27.03;;;14.70;;
3068;SDS011;1545;51.728;8.796;2023-04-06T00:23:24;28.23;;;14.97;;
3068;SDS011;1545;51.728;8.796;2023-04-06T00:25:50;30.30;;;15.80;;
3068;SDS011;1545;51.728;8.796;2023-04-06T00:28:15;26.20;;;14.53;;
3068;SDS011;1545;51.728;8.796;2023-04-06T00:30:41;26.33;;;14.83;;
3068;SDS011;1545;51.728;8.796;2023-04-06T00:33:07;27.17;;;14.37;;
3068;SDS011;1545;51.728;8.796;2023-04-06T00:35:32;28.23;;;15.67;;
3068;SDS011;1545;51.728;8.796;2023-04-06T00:37:58;24.07;;;14.27;;
3068;SDS011;1545;51.728;8.796;2023-04-06T00:40:23;28.10;;;14.67;;
3068;SDS011;1545;51.728;8.796;2023-04-06T00:42:49;30.13;;;14.87;;
3068;SDS011;1545;51.728;8.796;2023-04-06T00:45:15;26.43;;;15.17;;
3068;SDS011;1545;51.728;8.796;2023-04-06T00:47:40;25.80;;;15.10;;
3068;SDS011;1545;51.728;8.796;2023-04-06T00:50:06;28.03;;;14.23;;
3068;SDS011;1545;51.728;8.796;2023-04-06T00:52:33;25.93;;;14.23;;
3068;SDS011;1545;51.728;8.796;2023-04-06T00:54:59;23.53;;;14.77;;
3068;SDS011;1545;51.728;8.796;2023-04-06T00:57:24;25.53;;;14.73;;
3068;SDS011;1545;51.728;8.796;2023-04-06T00:59:50;22.07;;;13.83;;
3068;SDS011;1545;51.728;8.796;2023-04-06T01:02:17;27.07;;;14.83;;
3068;SDS011;1545;51.728;8.796;2023-04-06T01:04:43;25.87;;;14.53;;
3068;SDS011;1545;51.728;8.796;2023-04-06T01:07:09;25.13;;;14.67;;
3068;SDS011;1545;51.728;8.796;2023-04-06T01:09:34;30.57;;;14.53;;
3068;SDS011;1545;51.728;8.796;2023-04-06T01:12:00;28.00;;;14.77;;
3068;SDS011;1545;51.728;8.796;2023-04-06T01:14:26;29.43;;;14.77;;
3068;SDS011;1545;51.728;8.796;2023-04-06T01:16:51;25.60;;;14.47;;
3068;SDS011;1545;51.728;8.796;2023-04-06T01:19:17;26.43;;;15.17;;
3068;SDS011;1545;51.728;8.796;2023-04-06T01:21:43;24.60;;;14.50;;
3068;SDS011;1545;51.728;8.796;2023-04-06T01:24:08;23.87;;;14.60;;
3068;SDS011;1545;51.728;8.796;2023-04-06T01:26:34;27.50;;;14.97;;
3068;SDS011;1545;51.728;8.796;2023-04-06T01:29:01;25.93;;;14.77;;
3068;SDS011;1545;51.728;8.796;2023-04-06T01:31:27;25.00;;;14.37;;
3068;SDS011;1545;51.728;8.796;2023-04-06T01:33:53;25.50;;;14.33;;
3068;SDS011;1545;51.728;8.796;2023-04-06T01:36:19;22.73;;;13.87;;
3068;SDS011;1545;51.728;8.796;2023-04-06T01:38:45;23.57;;;14.67;;
3068;SDS011;1545;51.728;8.796;2023-04-06T01:41:11;29.53;;;14.47;;
3068;SDS011;1545;51.728;8.796;2023-04-06T01:43:36;28.07;;;14.53;;
3068;SDS011;1545;51.728;8.796;2023-04-06T01:46:02;28.33;;;14.77;;
3068;SDS011;1545;51.728;8.796;2023-04-06T01:48:28;32.33;;;14.57;;
3068;SDS011;1545;51.728;8.796;2023-04-06T01:50:54;24.73;;;14.37;;
3068;SDS011;1545;51.728;8.796;2023-04-06T01:53:20;23.30;;;14.70;;
3068;SDS011;1545;51.728;8.796;2023-04-06T01:55:45;25.83;;;14.37;;
3068;SDS011;1545;51.728;8.796;2023-04-06T01:58:11;25.13;;;14.57;;
3068;SDS011;1545;51.728;8.796;2023-04-06T02:00:37;25.77;;;14.97;;
3068;SDS011;1545;51.728;8.796;2023-04-06T02:03:02;22.97;;;14.00;;
3068;SDS011;1545;51.728;8.796;2023-04-06T02:05:29;25.23;;;14.20;;
3068;SDS011;1545;51.728;8.796;2023-04-06T02:07:56;24.43;;;14.53;;
3068;SDS011;1545;51.728;8.796;2023-04-06T02:10:22;27.63;;;15.47;;
3068;SDS011;1545;51.728;8.796;2023-04-06T02:12:48;25.23;;;15.30;;
3068;SDS011;1545;51.728;8.796;2023-04-06T02:15:14;27.13;;;15.10;;
3068;SDS011;1545;51.728;8.796;2023-04-06T02:17:40;25.50;;;14.50;;
3068;SDS011;1545;51.728;8.796;2023-04-06T02:20:06;24.70;;;14.30;;
3068;SDS011;1545;51.728;8.796;2023-04-06T02:22:33;24.00;;;14.87;;
3068;SDS011;1545;51.728;8.796;2023-04-06T02:24:58;29.63;;;13.73;;
3068;SDS011;1545;51.728;8.796;2023-04-06T02:27:24;26.33;;;14.17;;
3068;SDS011;1545;51.728;8.796;2023-04-06T02:29:49;27.43;;;14.90;;
3068;SDS011;1545;51.728;8.796;2023-04-06T02:32:15;22.20;;;14.07;;
3068;SDS011;1545;51.728;8.796;2023-04-06T02:34:40;24.03;;;14.37;;
3068;SDS011;1545;51.728;8.796;2023-04-06T02:37:06;22.03;;;13.80;;
3068;SDS011;1545;51.728;8.796;2023-04-06T02:39:31;23.27;;;14.43;;
3068;SDS011;1545;51.728;8.796;2023-04-06T02:41:57;25.37;;;13.70;;
3068;SDS011;1545;51.728;8.796;2023-04-06T02:44:22;24.73;;;14.57;;
3068;SDS011;1545;51.728;8.796;2023-04-06T02:46:48;25.13;;;14.40;;
3068;SDS011;1545;51.728;8.796;2023-04-06T02:49:13;27.07;;;13.87;;
3068;SDS011;1545;51.728;8.796;2023-04-06T02:51:39;23.30;;;13.80;;
3068;SDS011;1545;51.728;8.796;2023-04-06T02:54:04;23.20;;;13.93;;
3068;SDS011;1545;51.728;8.796;2023-04-06T02:56:30;22.33;;;14.07;;
3068;SDS011;1545;51.728;8.796;2023-04-06T02:58:55;30.17;;;14.13;;
3068;SDS011;1545;51.728;8.796;2023-04-06T03:01:21;26.70;;;14.33;;
3068;SDS011;1545;51.728;8.796;2023-04-06T03:03:46;23.03;;;14.10;;
3068;SDS011;1545;51.728;8.796;2023-04-06T03:06:12;23.43;;;13.70;;
3068;SDS011;1545;51.728;8.796;2023-04-06T03:08:37;23.23;;;14.13;;
3068;SDS011;1545;51.728;8.796;2023-04-06T03:11:03;24.67;;;14.47;;
3068;SDS011;1545;51.728;8.796;2023-04-06T03:13:28;22.20;;;14.30;;
3068;SDS011;1545;51.728;8.796;2023-04-06T03:15:54;25.17;;;14.70;;
3068;SDS011;1545;51.728;8.796;2023-04-06T03:18:23;29.97;;;14.53;;
3068;SDS011;1545;51.728;8.796;2023-04-06T03:20:50;23.37;;;13.83;;
3068;SDS011;1545;51.728;8.796;2023-04-06T03:23:15;23.73;;;14.07;;
3068;SDS011;1545;51.728;8.796;2023-04-06T03:25:41;30.17;;;14.30;;
3068;SDS011;1545;51.728;8.796;2023-04-06T03:28:07;24.30;;;14.07;;
3068;SDS011;1545;51.728;8.796;2023-04-06T03:30:32;31.57;;;13.87;;
3068;SDS011;1545;51.728;8.796;2023-04-06T03:32:58;24.70;;;14.07;;
3068;SDS011;1545;51.728;8.796;2023-04-06T03:35:24;27.20;;;14.60;;
3068;SDS011;1545;51.728;8.796;2023-04-06T03:37:49;28.47;;;15.33;;
3068;SDS011;1545;51.728;8.796;2023-04-06T03:40:15;27.50;;;15.03;;
3068;SDS011;1545;51.728;8.796;2023-04-06T03:42:40;24.60;;;14.00;;
3068;SDS011;1545;51.728;8.796;2023-04-06T03:45:06;18.90;;;11.33;;
3068;SDS011;1545;51.728;8.796;2023-04-06T03:47:32;21.67;;;13.57;;
3068;SDS011;1545;51.728;8.796;2023-04-06T03:49:58;27.87;;;14.17;;
3068;SDS011;1545;51.728;8.796;2023-04-06T03:52:23;24.97;;;14.57;;
3068;SDS011;1545;51.728;8.796;2023-04-06T03:54:49;23.53;;;14.30;;
3068;SDS011;1545;51.728;8.796;2023-04-06T03:57:14;23.50;;;14.83;;
3068;SDS011;1545;51.728;8.796;2023-04-06T03:59:40;29.77;;;14.73;;
3068;SDS011;1545;51.728;8.796;2023-04-06T04:02:05;24.83;;;14.33;;
3068;SDS011;1545;51.728;8.796;2023-04-06T04:04:31;26.07;;;14.83;;
3068;SDS011;1545;51.728;8.796;2023-04-06T04:06:56;26.30;;;15.20;;
3068;SDS011;1545;51.728;8.796;2023-04-06T04:09:22;24.77;;;15.03;;
3068;SDS011;1545;51.728;8.796;2023-04-06T04:11:47;27.20;;;14.80;;
3068;SDS011;1545;51.728;8.796;2023-04-06T04:14:13;26.53;;;14.80;;
3068;SDS011;1545;51.728;8.796;2023-04-06T04:16:38;26.03;;;15.17;;
3068;SDS011;1545;51.728;8.796;2023-04-06T04:19:04;26.70;;;14.63;;
3068;SDS011;1545;51.728;8.796;2023-04-06T04:21:30;28.73;;;15.00;;
3068;SDS011;1545;51.728;8.796;2023-04-06T04:23:56;29.70;;;15.60;;
3068;SDS011;1545;51.728;8.796;2023-04-06T04:26:22;26.53;;;14.90;;
3068;SDS011;1545;51.728;8.796;2023-04-06T04:28:47;22.73;;;14.40;;
3068;SDS011;1545;51.728;8.796;2023-04-06T04:31:13;24.60;;;14.63;;
3068;SDS011;1545;51.728;8.796;2023-04-06T04:33:38;24.83;;;14.37;;
3068;SDS011;1545;51.728;8.796;2023-04-06T04:36:04;25.27;;;14.53;;
3068;SDS011;1545;51.728;8.796;2023-04-06T04:38:30;23.57;;;14.83;;
3068;SDS011;1545;51.728;8.796;2023-04-06T04:40:55;23.23;;;14.70;;
3068;SDS011;1545;51.728;8.796;2023-04-06T04:43:21;25.07;;;14.53;;
3068;SDS011;1545;51.728;8.796;2023-04-06T04:45:46;24.37;;;13.87;;
3068;SDS011;1545;51.728;8.796;2023-04-06T04:48:12;27.03;;;14.57;;
3068;SDS011;1545;51.728;8.796;2023-04-06T04:50:37;24.20;;;14.07;;
3068;SDS011;1545;51.728;8.796;2023-04-06T04:53:03;26.40;;;14.20;;
3068;SDS011;1545;51.728;8.796;2023-04-06T04:55:30;24.90;;;14.37;;
3068;SDS011;1545;51.728;8.796;2023-04-06T04:57:56;25.93;;;14.20;;
3068;SDS011;1545;51.728;8.796;2023-04-06T05:00:22;26.93;;;13.50;;
3068;SDS011;1545;51.728;8.796;2023-04-06T05:02:48;25.37;;;14.40;;
3068;SDS011;1545;51.728;8.796;2023-04-06T05:05:13;28.03;;;14.80;;
3068;SDS011;1545;51.728;8.796;2023-04-06T05:07:39;29.70;;;15.17;;
3068;SDS011;1545;51.728;8.796;2023-04-06T05:10:05;23.83;;;14.03;;
3068;SDS011;1545;51.728;8.796;2023-04-06T05:12:30;36.30;;;14.47;;
3068;SDS011;1545;51.728;8.796;2023-04-06T05:14:56;23.33;;;13.67;;
3068;SDS011;1545;51.728;8.796;2023-04-06T05:17:22;27.40;;;14.17;;
3068;SDS011;1545;51.728;8.796;2023-04-06T05:19:47;23.57;;;13.73;;
3068;SDS011;1545;51.728;8.796;2023-04-06T05:22:13;29.00;;;13.80;;
3068;SDS011;1545;51.728;8.796;2023-04-06T05:24:41;26.30;;;14.17;;
3068;SDS011;1545;51.728;8.796;2023-04-06T05:27:06;23.20;;;13.43;;
3068;SDS011;1545;51.728;8.796;2023-04-06T05:29:32;26.50;;;14.07;;
3068;SDS011;1545;51.728;8.796;2023-04-06T05:31:58;26.10;;;13.97;;
3068;SDS011;1545;51.728;8.796;2023-04-06T05:34:23;27.27;;;14.07;;
3068;SDS011;1545;51.728;8.796;2023-04-06T05:36:49;27.50;;;13.70;;
3068;SDS011;1545;51.728;8.796;2023-04-06T05:39:14;22.97;;;13.43;;
3068;SDS011;1545;51.728;8.796;2023-04-06T05:41:40;22.83;;;13.73;;
3068;SDS011;1545;51.728;8.796;2023-04-06T05:44:06;21.90;;;13.43;;
3068;SDS011;1545;51.728;8.796;2023-04-06T05:46:31;31.30;;;13.90;;
3068;SDS011;1545;51.728;8.796;2023-04-06T05:48:57;24.23;;;13.83;;
3068;SDS011;1545;51.728;8.796;2023-04-06T05:51:22;27.30;;;14.13;;
3068;SDS011;1545;51.728;8.796;2023-04-06T05:53:48;28.47;;;14.13;;
3068;SDS011;1545;51.728;8.796;2023-04-06T05:56:13;25.50;;;12.63;;
3068;SDS011;1545;51.728;8.796;2023-04-06T05:58:39;22.30;;;14.03;;
3068;SDS011;1545;51.728;8.796;2023-04-06T06:01:04;23.67;;;13.57;;
3068;SDS011;1545;51.728;8.796;2023-04-06T06:03:30;22.73;;;14.17;;
3068;SDS011;1545;51.728;8.796;2023-04-06T06:05:59;21.90;;;13.67;;
3068;SDS011;1545;51.728;8.796;2023-04-06T06:08:26;23.43;;;14.37;;
3068;SDS011;1545;51.728;8.796;2023-04-06T06:10:52;26.10;;;14.23;;
3068;SDS011;1545;51.728;8.796;2023-04-06T06:13:17;24.67;;;14.13;;
3068;SDS011;1545;51.728;8.796;2023-04-06T06:15:43;24.23;;;14.50;;
3068;SDS011;1545;51.728;8.796;2023-04-06T06:18:08;32.60;;;14.07;;
3068;SDS011;1545;51.728;8.796;2023-04-06T06:20:34;30.07;;;14.37;;
3068;SDS011;1545;51.728;8.796;2023-04-06T06:22:59;25.63;;;13.93;;
3068;SDS011;1545;51.728;8.796;2023-04-06T06:25:25;25.07;;;14.03;;
3068;SDS011;1545;51.728;8.796;2023-04-06T06:27:51;29.73;;;14.10;;
3068;SDS011;1545;51.728;8.796;2023-04-06T06:30:16;26.73;;;13.83;;
3068;SDS011;1545;51.728;8.796;2023-04-06T06:32:42;25.77;;;13.70;;
3068;SDS011;1545;51.728;8.796;2023-04-06T06:35:07;25.60;;;13.73;;
3068;SDS011;1545;51.728;8.796;2023-04-06T06:37:33;24.30;;;13.27;;
3068;SDS011;1545;51.728;8.796;2023-04-06T06:39:58;25.83;;;13.83;;
3068;SDS011;1545;51.728;8.796;2023-04-06T06:42:24;27.07;;;13.77;;
3068;SDS011;1545;51.728;8.796;2023-04-06T06:44:50;24.00;;;14.13;;
3068;SDS011;1545;51.728;8.796;2023-04-06T06:47:16;26.73;;;14.00;;
3068;SDS011;1545;51.728;8.796;2023-04-06T06:49:41;25.40;;;14.40;;
3068;SDS011;1545;51.728;8.796;2023-04-06T06:52:07;24.60;;;14.10;;
3068;SDS011;1545;51.728;8.796;2023-04-06T06:54:32;30.90;;;13.87;;
3068;SDS011;1545;51.728;8.796;2023-04-06T06:56:58;27.23;;;14.23;;
3068;SDS011;1545;51.728;8.796;2023-04-06T06:59:25;29.83;;;13.83;;
3068;SDS011;1545;51.728;8.796;2023-04-06T07:01:50;25.57;;;13.93;;
3068;SDS011;1545;51.728;8.796;2023-04-06T07:04:16;30.37;;;13.47;;
3068;SDS011;1545;51.728;8.796;2023-04-06T07:06:41;27.47;;;13.20;;
3068;SDS011;1545;51.728;8.796;2023-04-06T07:09:07;22.13;;;13.33;;
3068;SDS011;1545;51.728;8.796;2023-04-06T07:11:32;19.87;;;12.57;;
3068;SDS011;1545;51.728;8.796;2023-04-06T07:13:58;24.57;;;12.67;;
3068;SDS011;1545;51.728;8.796;2023-04-06T07:16:23;27.23;;;13.03;;
3068;SDS011;1545;51.728;8.796;2023-04-06T07:18:49;24.07;;;12.73;;
3068;SDS011;1545;51.728;8.796;2023-04-06T07:21:14;23.30;;;12.60;;
3068;SDS011;1545;51.728;8.796;2023-04-06T07:23:40;20.33;;;12.13;;
3068;SDS011;1545;51.728;8.796;2023-04-06T07:26:06;20.43;;;12.73;;
3068;SDS011;1545;51.728;8.796;2023-04-06T07:28:31;27.23;;;12.43;;
3068;SDS011;1545;51.728;8.796;2023-04-06T07:30:57;23.23;;;11.70;;
3068;SDS011;1545;51.728;8.796;2023-04-06T07:33:22;26.80;;;12.23;;
3068;SDS011;1545;51.728;8.796;2023-04-06T07:35:51;23.40;;;12.97;;
3068;SDS011;1545;51.728;8.796;2023-04-06T07:38:17;30.43;;;13.03;;
3068;SDS011;1545;51.728;8.796;2023-04-06T07:40:42;24.83;;;13.00;;
3068;SDS011;1545;51.728;8.796;2023-04-06T07:43:08;21.00;;;12.60;;
3068;SDS011;1545;51.728;8.796;2023-04-06T07:45:33;25.70;;;12.87;;
3068;SDS011;1545;51.728;8.796;2023-04-06T07:47:59;23.67;;;12.47;;
3068;SDS011;1545;51.728;8.796;2023-04-06T07:50:24;26.13;;;12.73;;
3068;SDS011;1545;51.728;8.796;2023-04-06T07:52:50;20.60;;;11.83;;
3068;SDS011;1545;51.728;8.796;2023-04-06T07:55:15;21.53;;;12.10;;
3068;SDS011;1545;51.728;8.796;2023-04-06T07:57:41;21.70;;;12.80;;
3068;SDS011;1545;51.728;8.796;2023-04-06T08:00:06;18.70;;;11.60;;
3068;SDS011;1545;51.728;8.796;2023-04-06T08:02:34;22.17;;;12.33;;
3068;SDS011;1545;51.728;8.796;2023-04-06T08:04:59;19.97;;;12.00;;
3068;SDS011;1545;51.728;8.796;2023-04-06T08:07:25;19.93;;;11.77;;
3068;SDS011;1545;51.728;8.796;2023-04-06T08:09:51;22.13;;;12.93;;
3068;SDS011;1545;51.728;8.796;2023-04-06T08:12:16;22.03;;;12.93;;
3068;SDS011;1545;51.728;8.796;2023-04-06T08:14:42;26.20;;;13.33;;
3068;SDS011;1545;51.728;8.796;2023-04-06T08:17:07;23.77;;;12.27;;
3068;SDS011;1545;51.728;8.796;2023-04-06T08:19:33;21.23;;;12.30;;
3068;SDS011;1545;51.728;8.796;2023-04-06T08:21:58;22.13;;;12.63;;
3068;SDS011;1545;51.728;8.796;2023-04-06T08:24:24;25.83;;;12.40;;
3068;SDS011;1545;51.728;8.796;2023-04-06T08:26:49;20.53;;;12.53;;
3068;SDS011;1545;51.728;8.796;2023-04-06T08:29:16;20.77;;;12.40;;
3068;SDS011;1545;51.728;8.796;2023-04-06T08:31:41;24.93;;;13.43;;
3068;SDS011;1545;51.728;8.796;2023-04-06T08:34:07;20.30;;;12.20;;
3068;SDS011;1545;51.728;8.796;2023-04-06T08:36:32;19.20;;;12.50;;
3068;SDS011;1545;51.728;8.796;2023-04-06T08:38:58;20.77;;;12.97;;
3068;SDS011;1545;51.728;8.796;2023-04-06T08:41:25;19.83;;;12.67;;
3068;SDS011;1545;51.728;8.796;2023-04-06T08:43:58;33.27;;;13.23;;
3068;SDS011;1545;51.728;8.796;2023-04-06T08:46:25;20.93;;;13.63;;
3068;SDS011;1545;51.728;8.796;2023-04-06T08:48:54;26.40;;;13.10;;
3068;SDS011;1545;51.728;8.796;2023-04-06T08:51:22;26.87;;;13.00;;
3068;SDS011;1545;51.728;8.796;2023-04-06T08:53:48;28.57;;;13.27;;
3068;SDS011;1545;51.728;8.796;2023-04-06T08:56:14;23.20;;;13.63;;
3068;SDS011;1545;51.728;8.796;2023-04-06T08:58:40;24.87;;;13.83;;
3068;SDS011;1545;51.728;8.796;2023-04-06T09:01:07;28.00;;;13.90;;
3068;SDS011;1545;51.728;8.796;2023-04-06T09:03:37;22.33;;;13.70;;
3068;SDS011;1545;51.728;8.796;2023-04-06T09:06:07;24.70;;;13.70;;
3068;SDS011;1545;51.728;8.796;2023-04-06T09:08:33;22.00;;;13.57;;
3068;SDS011;1545;51.728;8.796;2023-04-06T09:11:01;22.30;;;13.70;;
3068;SDS011;1545;51.728;8.796;2023-04-06T09:13:27;24.60;;;14.27;;
3068;SDS011;1545;51.728;8.796;2023-04-06T09:16:00;23.23;;;14.23;;
3068;SDS011;1545;51.728;8.796;2023-04-06T09:18:32;24.37;;;14.17;;
3068;SDS011;1545;51.728;8.796;2023-04-06T09:20:59;22.97;;;14.20;;
3068;SDS011;1545;51.728;8.796;2023-04-06T09:23:26;26.00;;;14.93;;
3068;SDS011;1545;51.728;8.796;2023-04-06T09:26:04;23.53;;;14.00;;
3068;SDS011;1545;51.728;8.796;2023-04-06T09:28:40;31.90;;;14.23;;
3068;SDS011;1545;51.728;8.796;2023-04-06T09:31:16;23.60;;;15.00;;
3068;SDS011;1545;51.728;8.796;2023-04-06T09:33:46;24.07;;;14.30;;
3068;SDS011;1545;51.728;8.796;2023-04-06T09:36:11;28.10;;;15.13;;
3068;SDS011;1545;51.728;8.796;2023-04-06T09:38:50;28.27;;;14.97;;
3068;SDS011;1545;51.728;8.796;2023-04-06T09:41:23;28.27;;;15.87;;
3068;SDS011;1545;51.728;8.796;2023-04-06T09:43:50;28.53;;;15.10;;
3068;SDS011;1545;51.728;8.796;2023-04-06T09:46:28;27.13;;;15.33;;
3068;SDS011;1545;51.728;8.796;2023-04-06T09:49:06;36.90;;;16.37;;
3068;SDS011;1545;51.728;8.796;2023-04-06T09:51:36;27.33;;;16.70;;
3068;SDS011;1545;51.728;8.796;2023-04-06T09:54:04;38.03;;;18.07;;
3068;SDS011;1545;51.728;8.796;2023-04-06T09:59:14;31.87;;;18.17;;
3068;SDS011;1545;51.728;8.796;2023-04-06T10:01:46;42.87;;;17.70;;
3068;SDS011;1545;51.728;8.796;2023-04-06T10:04:21;32.20;;;17.20;;
3068;SDS011;1545;51.728;8.796;2023-04-06T10:07:08;36.50;;;17.80;;
3068;SDS011;1545;51.728;8.796;2023-04-06T10:09:36;28.63;;;17.27;;
3068;SDS011;1545;51.728;8.796;2023-04-06T10:12:05;44.33;;;18.27;;
3068;SDS011;1545;51.728;8.796;2023-04-06T10:14:34;32.20;;;17.73;;
3068;SDS011;1545;51.728;8.796;2023-04-06T10:17:03;32.27;;;18.00;;
3068;SDS011;1545;51.728;8.796;2023-04-06T10:19:42;30.33;;;17.80;;
3068;SDS011;1545;51.728;8.796;2023-04-06T10:22:26;35.90;;;18.80;;
3068;SDS011;1545;51.728;8.796;2023-04-06T10:24:58;28.97;;;17.13;;
3068;SDS011;1545;51.728;8.796;2023-04-06T10:27:30;30.40;;;17.73;;
3068;SDS011;1545;51.728;8.796;2023-04-06T10:30:01;31.60;;;16.97;;
3068;SDS011;1545;51.728;8.796;2023-04-06T10:32:35;34.90;;;17.83;;
3068;SDS011;1545;51.728;8.796;2023-04-06T10:35:11;33.10;;;18.93;;
3068;SDS011;1545;51.728;8.796;2023-04-06T10:37:50;32.03;;;18.73;;
3068;SDS011;1545;51.728;8.796;2023-04-06T10:40:37;39.80;;;17.53;;
3068;SDS011;1545;51.728;8.796;2023-04-06T10:43:08;35.60;;;18.07;;
3068;SDS011;1545;51.728;8.796;2023-04-06T10:45:34;34.20;;;17.93;;
3068;SDS011;1545;51.728;8.796;2023-04-06T10:48:04;32.80;;;18.13;;
3068;SDS011;1545;51.728;8.796;2023-04-06T10:50:42;44.13;;;20.03;;
3068;SDS011;1545;51.728;8.796;2023-04-06T10:53:09;35.80;;;19.10;;
3068;SDS011;1545;51.728;8.796;2023-04-06T10:55:34;37.40;;;19.07;;
3068;SDS011;1545;51.728;8.796;2023-04-06T10:58:07;46.57;;;18.77;;
3068;SDS011;1545;51.728;8.796;2023-04-06T11:00:33;37.07;;;19.07;;
3068;SDS011;1545;51.728;8.796;2023-04-06T11:02:59;32.23;;;19.40;;
3068;SDS011;1545;51.728;8.796;2023-04-06T11:05:28;39.20;;;19.23;;
3068;SDS011;1545;51.728;8.796;2023-04-06T11:07:53;38.50;;;18.43;;
3068;SDS011;1545;51.728;8.796;2023-04-06T11:10:22;43.13;;;19.33;;
3068;SDS011;1545;51.728;8.796;2023-04-06T11:12:52;43.77;;;18.90;;
3068;SDS011;1545;51.728;8.796;2023-04-06T11:15:19;33.40;;;18.77;;
3068;SDS011;1545;51.728;8.796;2023-04-06T11:17:45;30.33;;;17.97;;
3068;SDS011;1545;51.728;8.796;2023-04-06T11:20:11;45.23;;;19.17;;
3068;SDS011;1545;51.728;8.796;2023-04-06T11:22:47;34.17;;;19.67;;
3068;SDS011;1545;51.728;8.796;2023-04-06T11:25:13;29.47;;;17.67;;
3068;SDS011;1545;51.728;8.796;2023-04-06T11:27:39;35.30;;;20.37;;
3068;SDS011;1545;51.728;8.796;2023-04-06T11:30:05;33.03;;;19.43;;
3068;SDS011;1545;51.728;8.796;2023-04-06T11:32:39;36.53;;;19.90;;
3068;SDS011;1545;51.728;8.796;2023-04-06T11:35:07;33.80;;;19.70;;
3068;SDS011;1545;51.728;8.796;2023-04-06T11:37:35;40.07;;;20.53;;
3068;SDS011;1545;51.728;8.796;2023-04-06T11:40:01;35.50;;;20.53;;
3068;SDS011;1545;51.728;8.796;2023-04-06T11:42:27;32.30;;;18.57;;
3068;SDS011;1545;51.728;8.796;2023-04-06T11:44:55;34.73;;;19.87;;
3068;SDS011;1545;51.728;8.796;2023-04-06T11:47:33;36.50;;;19.97;;
3068;SDS011;1545;51.728;8.796;2023-04-06T11:50:10;39.80;;;20.23;;
3068;SDS011;1545;51.728;8.796;2023-04-06T11:52:37;39.93;;;20.13;;
3068;SDS011;1545;51.728;8.796;2023-04-06T11:55:14;44.07;;;20.50;;
3068;SDS011;1545;51.728;8.796;2023-04-06T11:57:42;40.60;;;20.73;;
3068;SDS011;1545;51.728;8.796;2023-04-06T12:00:08;38.43;;;20.30;;
3068;SDS011;1545;51.728;8.796;2023-04-06T12:02:38;34.57;;;20.20;;
3068;SDS011;1545;51.728;8.796;2023-04-06T12:05:04;37.17;;;21.13;;
3068;SDS011;1545;51.728;8.796;2023-04-06T12:07:32;38.87;;;21.63;;
3068;SDS011;1545;51.728;8.796;2023-04-06T12:09:58;33.97;;;19.30;;
3068;SDS011;1545;51.728;8.796;2023-04-06T12:12:24;35.13;;;20.40;;
3068;SDS011;1545;51.728;8.796;2023-04-06T12:14:50;33.47;;;19.53;;
3068;SDS011;1545;51.728;8.796;2023-04-06T12:17:16;42.97;;;20.70;;
3068;SDS011;1545;51.728;8.796;2023-04-06T12:19:41;33.87;;;20.37;;
3068;SDS011;1545;51.728;8.796;2023-04-06T12:22:07;39.10;;;21.50;;
3068;SDS011;1545;51.728;8.796;2023-04-06T12:24:33;35.20;;;19.93;;
3068;SDS011;1545;51.728;8.796;2023-04-06T12:26:58;39.37;;;20.73;;
3068;SDS011;1545;51.728;8.796;2023-04-06T12:29:24;35.87;;;20.30;;
3068;SDS011;1545;51.728;8.796;2023-04-06T12:31:50;41.20;;;20.43;;
3068;SDS011;1545;51.728;8.796;2023-04-06T12:34:15;36.50;;;20.57;;
3068;SDS011;1545;51.728;8.796;2023-04-06T12:36:41;39.03;;;20.33;;
3068;SDS011;1545;51.728;8.796;2023-04-06T12:39:07;38.23;;;20.43;;
3068;SDS011;1545;51.728;8.796;2023-04-06T12:41:32;37.43;;;19.77;;
3068;SDS011;1545;51.728;8.796;2023-04-06T12:43:58;38.93;;;20.20;;
3068;SDS011;1545;51.728;8.796;2023-04-06T12:46:24;41.97;;;21.23;;
3068;SDS011;1545;51.728;8.796;2023-04-06T12:48:51;38.83;;;20.90;;
3068;SDS011;1545;51.728;8.796;2023-04-06T12:51:18;35.17;;;20.00;;
3068;SDS011;1545;51.728;8.796;2023-04-06T12:53:44;33.87;;;19.97;;
3068;SDS011;1545;51.728;8.796;2023-04-06T12:56:11;34.73;;;17.57;;
3068;SDS011;1545;51.728;8.796;2023-04-06T12:58:38;34.07;;;19.53;;
3068;SDS011;1545;51.728;8.796;2023-04-06T13:01:05;32.10;;;17.60;;
3068;SDS011;1545;51.728;8.796;2023-04-06T13:03:32;33.53;;;17.90;;
3068;SDS011;1545;51.728;8.796;2023-04-06T13:05:58;31.17;;;16.80;;
3068;SDS011;1545;51.728;8.796;2023-04-06T13:08:25;29.73;;;17.83;;
3068;SDS011;1545;51.728;8.796;2023-04-06T13:10:52;35.40;;;17.97;;
3068;SDS011;1545;51.728;8.796;2023-04-06T13:13:21;34.17;;;18.43;;
3068;SDS011;1545;51.728;8.796;2023-04-06T13:15:49;29.40;;;17.73;;
3068;SDS011;1545;51.728;8.796;2023-04-06T13:18:15;35.23;;;18.37;;
3068;SDS011;1545;51.728;8.796;2023-04-06T13:20:41;31.30;;;17.87;;
3068;SDS011;1545;51.728;8.796;2023-04-06T13:23:06;30.20;;;17.50;;
3068;SDS011;1545;51.728;8.796;2023-04-06T13:25:32;28.67;;;16.90;;
3068;SDS011;1545;51.728;8.796;2023-04-06T13:27:58;30.60;;;18.63;;
3068;SDS011;1545;51.728;8.796;2023-04-06T13:30:23;35.47;;;19.93;;
3068;SDS011;1545;51.728;8.796;2023-04-06T13:32:49;36.13;;;18.17;;
3068;SDS011;1545;51.728;8.796;2023-04-06T13:35:15;32.90;;;17.53;;
3068;SDS011;1545;51.728;8.796;2023-04-06T13:37:41;29.73;;;17.27;;
3068;SDS011;1545;51.728;8.796;2023-04-06T13:40:07;39.90;;;18.40;;
3068;SDS011;1545;51.728;8.796;2023-04-06T13:42:33;29.87;;;17.50;;
3068;SDS011;1545;51.728;8.796;2023-04-06T13:45:00;34.17;;;18.27;;
3068;SDS011;1545;51.728;8.796;2023-04-06T13:47:25;34.50;;;17.67;;
3068;SDS011;1545;51.728;8.796;2023-04-06T13:49:51;38.53;;;17.50;;
3068;SDS011;1545;51.728;8.796;2023-04-06T13:52:18;30.90;;;18.20;;
3068;SDS011;1545;51.728;8.796;2023-04-06T13:54:43;30.87;;;17.83;;
3068;SDS011;1545;51.728;8.796;2023-04-06T13:57:09;35.43;;;17.47;;
3068;SDS011;1545;51.728;8.796;2023-04-06T13:59:35;41.70;;;18.67;;
3068;SDS011;1545;51.728;8.796;2023-04-06T14:02:05;34.07;;;18.73;;
3068;SDS011;1545;51.728;8.796;2023-04-06T14:04:31;30.63;;;17.40;;
3068;SDS011;1545;51.728;8.796;2023-04-06T14:06:57;28.30;;;16.87;;
3068;SDS011;1545;51.728;8.796;2023-04-06T14:09:24;29.63;;;17.83;;
3068;SDS011;1545;51.728;8.796;2023-04-06T14:11:49;51.47;;;18.10;;
3068;SDS011;1545;51.728;8.796;2023-04-06T14:14:15;30.33;;;17.73;;
3068;SDS011;1545;51.728;8.796;2023-04-06T14:16:41;29.57;;;17.43;;
3068;SDS011;1545;51.728;8.796;2023-04-06T14:19:08;30.83;;;18.10;;
3068;SDS011;1545;51.728;8.796;2023-04-06T14:21:35;27.90;;;17.47;;
3068;SDS011;1545;51.728;8.796;2023-04-06T14:24:01;32.67;;;17.50;;
3068;SDS011;1545;51.728;8.796;2023-04-06T14:26:27;30.33;;;17.83;;
3068;SDS011;1545;51.728;8.796;2023-04-06T14:28:52;29.03;;;17.63;;
3068;SDS011;1545;51.728;8.796;2023-04-06T14:31:18;27.77;;;16.37;;
3068;SDS011;1545;51.728;8.796;2023-04-06T14:33:43;32.13;;;18.33;;
3068;SDS011;1545;51.728;8.796;2023-04-06T14:36:09;31.47;;;18.70;;
3068;SDS011;1545;51.728;8.796;2023-04-06T14:38:36;36.17;;;18.83;;
3068;SDS011;1545;51.728;8.796;2023-04-06T14:41:01;35.50;;;17.93;;
3068;SDS011;1545;51.728;8.796;2023-04-06T14:43:27;29.83;;;17.17;;
3068;SDS011;1545;51.728;8.796;2023-04-06T14:45:52;30.87;;;17.30;;
3068;SDS011;1545;51.728;8.796;2023-04-06T14:48:18;23.30;;;14.20;;